Time;durP1;ratioP1;P1;durP2;ratioP2;P2;SDS_P1;SDS_P2;PMS_P1;PMS_P2;Temp;Humidity;BMP_temperature;BMP_pressure;BME280_temperature;BME280_humidity;BME280_pressure;Samples;Min_cycle;Max_cycle;Signal;HPM_P1;HPM_P2
2024/03/16 00:01:42;;;;;;;47.30;33.10;;;;;;;5.87;82.61;100122.73;105651;1258;68716;-73
2024/03/16 00:04:10;;;;;;;48.70;34.20;;;;;;;5.85;83.09;100124.11;105945;1253;72672;-74
2024/03/16 00:06:38;;;;;;;55.30;36.20;;;;;;;5.80;82.99;100121.69;105711;1253;60457;-72
2024/03/16 00:09:05;;;;;;;57.60;38.50;;;;;;;5.73;83.13;100118.95;105869;1252;60533;-72
2024/03/16 00:11:33;;;;;;;58.40;36.30;;;;;;;5.68;83.28;100120.39;105685;1253;72609;-74
2024/03/16 00:14:01;;;;;;;51.60;34.80;;;;;;;5.75;83.32;100119.49;105840;1252;70870;-72
2024/03/16 00:16:30;;;;;;;53.20;33.20;;;;;;;5.84;83.18;100121.27;105618;1255;71705;-73
2024/03/16 00:18:58;;;;;;;48.00;33.40;;;;;;;5.81;83.09;100122.02;105949;1253;60600;-74
2024/03/16 00:21:26;;;;;;;47.60;34.00;;;;;;;5.77;83.68;100121.30;105987;1251;60440;-74
2024/03/16 00:23:54;;;;;;;61.30;38.10;;;;;;;5.73;83.50;100118.83;105762;1254;73901;-73
2024/03/16 00:26:22;;;;;;;53.40;35.10;;;;;;;5.66;83.66;100119.54;105908;1253;69195;-73
2024/03/16 00:28:50;;;;;;;49.10;34.60;;;;;;;5.71;83.58;100117.38;105808;1259;72951;-73
2024/03/16 00:31:18;;;;;;;51.20;35.50;;;;;;;5.79;83.59;100122.18;106240;1260;60927;-72
2024/03/16 00:33:46;;;;;;;57.00;36.80;;;;;;;5.79;83.82;100122.38;107194;1253;60478;-70
2024/03/16 00:36:15;;;;;;;57.00;39.20;;;;;;;5.76;83.99;100119.11;106999;1259;72639;-73
2024/03/16 00:38:44;;;;;;;56.10;38.90;;;;;;;5.74;84.22;100119.79;106586;1253;68723;-72
2024/03/16 00:41:11;;;;;;;57.40;36.40;;;;;;;5.73;84.30;100116.38;105552;1252;72741;-72
2024/03/16 00:43:38;;;;;;;53.00;35.00;;;;;;;5.81;84.13;100114.27;105514;1252;60858;-74
2024/03/16 00:46:06;;;;;;;54.10;35.50;;;;;;;5.87;83.70;100116.73;105469;1259;60623;-72
2024/03/16 00:48:33;;;;;;;55.10;37.70;;;;;;;5.85;83.84;100110.79;105468;1254;74914;-72
2024/03/16 00:51:01;;;;;;;55.40;36.40;;;;;;;5.81;83.96;100110.90;105406;1259;69008;-72
2024/03/16 00:53:29;;;;;;;56.80;37.50;;;;;;;5.77;83.90;100111.98;105952;1253;71036;-74
2024/03/16 00:55:56;;;;;;;55.40;36.60;;;;;;;5.71;84.05;100108.76;105964;1259;60409;-74
2024/03/16 00:58:24;;;;;;;56.50;36.10;;;;;;;5.79;84.15;100108.78;105567;1259;60359;-74
2024/03/16 01:00:51;;;;;;;55.00;36.00;;;;;;;5.89;83.83;100100.22;105764;1253;72342;-71
2024/03/16 01:03:19;;;;;;;52.40;37.00;;;;;;;5.87;83.34;100104.95;105703;1256;69161;-72
2024/03/16 01:05:51;;;;;;;51.90;36.50;;;;;;;5.79;83.89;100108.27;105767;1257;72355;-74
2024/03/16 01:08:19;;;;;;;64.40;39.50;;;;;;;5.77;84.23;100107.79;105732;1259;60460;-72
2024/03/16 01:10:54;;;;;;;60.70;37.20;;;;;;;5.70;83.99;100105.52;105674;1257;60444;-73
2024/03/16 01:13:22;;;;;;;54.20;35.20;;;;;;;5.71;83.85;100106.86;106044;1253;73899;-73
2024/03/16 01:15:50;;;;;;;55.40;36.20;;;;;;;5.76;84.08;100107.45;105451;1254;69550;-73
2024/03/16 01:18:18;;;;;;;56.00;37.00;;;;;;;5.77;84.34;100112.51;105444;1256;72691;-72
2024/03/16 01:20:46;;;;;;;61.60;38.70;;;;;;;5.74;84.35;100112.06;105377;1260;60532;-74
2024/03/16 01:23:14;;;;;;;61.40;39.30;;;;;;;5.68;84.60;100111.82;105852;1253;60494;-72
2024/03/16 01:25:42;;;;;;;53.80;35.20;;;;;;;5.60;84.52;100106.87;105516;1254;74000;-73
2024/03/16 01:28:09;;;;;;;51.80;33.90;;;;;;;5.65;84.59;100108.23;106360;1257;69138;-70
2024/03/16 01:30:37;;;;;;;53.30;32.80;;;;;;;5.71;84.37;100110.16;106737;1254;71393;-74
2024/03/16 01:33:05;;;;;;;48.90;32.00;;;;;;;5.73;84.37;100114.95;105977;1253;60453;-71
2024/03/16 01:35:32;;;;;;;57.70;35.80;;;;;;;5.67;84.33;100113.60;105523;1260;60281;-72
2024/03/16 01:38:00;;;;;;;58.40;35.80;;;;;;;5.59;84.78;100110.27;105491;1253;72668;-72
2024/03/16 01:40:32;;;;;;;61.10;35.60;;;;;;;5.56;84.91;100110.16;105722;1258;69096;-72
2024/03/16 01:43:00;;;;;;;56.80;33.80;;;;;;;5.61;84.59;100111.23;105533;1259;71641;-72
2024/03/16 01:45:27;;;;;;;53.10;34.70;;;;;;;5.65;84.71;100111.34;105590;1252;60410;-73
2024/03/16 01:47:55;;;;;;;52.80;34.60;;;;;;;5.63;84.87;100111.86;105684;1253;60587;-73
2024/03/16 01:50:23;;;;;;;66.00;39.20;;;;;;;5.59;85.14;100115.02;105720;1259;73930;-71
2024/03/16 01:52:50;;;;;;;59.80;35.70;;;;;;;5.58;85.46;100114.29;105747;1256;68695;-73
2024/03/16 01:55:18;;;;;;;59.60;36.30;;;;;;;5.58;85.33;100115.15;105736;1257;72807;-72
2024/03/16 01:57:45;;;;;;;62.50;35.40;;;;;;;5.63;85.33;100118.34;105442;1260;60517;-74
2024/03/16 02:00:15;;;;;;;66.30;37.40;;;;;;;5.66;85.46;100118.10;105560;1258;60333;-72
2024/03/16 02:02:42;;;;;;;60.20;38.70;;;;;;;5.64;85.39;100116.91;105804;1254;71652;-74
2024/03/16 02:05:10;;;;;;;64.80;38.20;;;;;;;5.62;85.63;100115.89;105796;1257;70218;-73
2024/03/16 02:07:37;;;;;;;57.70;36.30;;;;;;;5.62;85.62;100117.45;105505;1255;72722;-74
2024/03/16 02:10:08;;;;;;;52.40;33.40;;;;;;;5.70;85.32;100115.36;105637;1257;60732;-75
2024/03/16 02:12:36;;;;;;;55.40;33.80;;;;;;;5.77;85.12;100117.05;105942;1253;60793;-75
2024/03/16 02:15:05;;;;;;;58.90;36.40;;;;;;;5.75;85.20;100114.78;106036;1257;74254;-74
2024/03/16 02:17:33;;;;;;;59.80;38.10;;;;;;;5.68;84.56;100118.85;105727;1258;69059;-72
2024/03/16 02:20:03;;;;;;;53.40;34.40;;;;;;;5.56;85.08;100116.33;106080;1257;72618;-74
2024/03/16 02:22:30;;;;;;;53.00;33.70;;;;;;;5.55;85.02;100120.09;107461;1259;61560;-72
2024/03/16 02:24:58;;;;;;;54.30;30.80;;;;;;;5.56;84.83;100117.98;107354;1257;61285;-75
2024/03/16 02:27:25;;;;;;;48.60;31.20;;;;;;;5.44;85.00;100123.11;105850;1259;74688;-74
2024/03/16 02:29:53;;;;;;;51.20;32.10;;;;;;;5.28;85.24;100123.52;105919;1253;68721;-73
2024/03/16 02:32:21;;;;;;;53.00;33.30;;;;;;;5.18;85.94;100125.08;105695;1254;72460;-72
2024/03/16 02:34:48;;;;;;;50.50;32.80;;;;;;;5.12;86.03;100125.89;105822;1254;61346;-75
2024/03/16 02:37:16;;;;;;;46.00;29.40;;;;;;;5.15;86.14;100125.66;105871;1254;61276;-73
2024/03/16 02:39:44;;;;;;;47.80;29.50;;;;;;;5.23;86.45;100127.30;105522;1259;74081;-74
2024/03/16 02:42:11;;;;;;;47.90;29.70;;;;;;;5.24;86.51;100130.87;105643;1260;69170;-72
2024/03/16 02:44:40;;;;;;;50.30;31.60;;;;;;;5.19;86.80;100131.79;105709;1259;72661;-73
2024/03/16 02:47:10;;;;;;;48.60;31.40;;;;;;;5.18;87.01;100128.25;105629;1255;61311;-71
2024/03/16 02:49:37;;;;;;;50.00;30.20;;;;;;;5.19;87.34;100131.14;105853;1259;61382;-71
2024/03/16 02:52:05;;;;;;;46.50;28.20;;;;;;;5.25;87.04;100125.00;105784;1257;74894;-73
2024/03/16 02:54:33;;;;;;;46.80;28.90;;;;;;;5.34;87.03;100126.42;105769;1257;69012;-71
2024/03/16 02:57:00;;;;;;;48.70;29.50;;;;;;;5.34;87.13;100126.73;105715;1261;74926;-73
2024/03/16 02:59:29;;;;;;;48.20;29.70;;;;;;;5.32;87.32;100120.17;105452;1259;61266;-74
2024/03/16 03:01:57;;;;;;;47.20;28.90;;;;;;;5.29;86.64;100122.38;105921;1257;61225;-73
2024/03/16 03:04:25;;;;;;;45.20;28.60;;;;;;;5.27;86.38;100125.04;105716;1257;73042;-71
2024/03/16 03:06:52;;;;;;;53.30;32.00;;;;;;;5.26;86.69;100123.50;105504;1259;72159;-74
2024/03/16 03:09:20;;;;;;;49.40;29.70;;;;;;;5.19;86.64;100126.95;105933;1255;71767;-73
2024/03/16 03:11:48;;;;;;;49.80;30.60;;;;;;;5.12;86.98;100127.98;105688;1258;61685;-73
2024/03/16 03:14:15;;;;;;;53.70;32.00;;;;;;;5.11;87.59;100131.45;105924;1260;61116;-70
2024/03/16 03:16:43;;;;;;;49.90;29.30;;;;;;;5.11;88.03;100130.54;106898;1252;73407;-72
2024/03/16 03:19:11;;;;;;;43.10;27.50;;;;;;;5.22;88.08;100131.23;107087;1257;68710;-70
2024/03/16 03:21:39;;;;;;;44.10;27.30;;;;;;;5.35;87.64;100129.85;105512;1260;71445;-73
2024/03/16 03:24:07;;;;;;;46.40;27.50;;;;;;;5.36;87.45;100130.30;106180;1254;61312;-73
2024/03/16 03:26:34;;;;;;;48.00;30.30;;;;;;;5.36;87.64;100130.49;105761;1257;61327;-71
2024/03/16 03:29:02;;;;;;;42.80;27.20;;;;;;;5.29;87.36;100135.27;105709;1259;74901;-71
2024/03/16 03:31:29;;;;;;;45.80;28.20;;;;;;;5.28;87.42;100130.67;105518;1257;68893;-73
2024/03/16 03:33:57;;;;;;;44.00;27.80;;;;;;;5.37;87.22;100134.75;105644;1257;71503;-71
2024/03/16 03:36:25;;;;;;;45.60;29.50;;;;;;;5.40;87.25;100136.64;105709;1257;61246;-73
2024/03/16 03:38:52;;;;;;;42.80;28.00;;;;;;;5.38;87.11;100136.81;105607;1257;61439;-75
2024/03/16 03:41:20;;;;;;;43.70;27.50;;;;;;;5.37;87.51;100142.52;105952;1257;74604;-74
2024/03/16 03:43:57;;;;;;;43.80;27.00;;;;;;;5.34;87.32;100143.61;105718;1259;68851;-73
2024/03/16 03:46:50;;;;;;;42.00;27.00;;;;;;;5.36;86.53;100146.06;105829;1258;71377;-73
2024/03/16 03:49:39;;;;;;;40.80;25.40;;;;;;;5.38;86.47;100147.83;105742;1258;61109;-72
2024/03/16 03:52:07;;;;;;;43.30;27.10;;;;;;;5.32;86.97;100146.19;105985;1254;61384;-72
2024/03/16 03:54:34;;;;;;;44.00;28.70;;;;;;;5.31;87.42;100146.11;105499;1257;74863;-73
2024/03/16 03:57:03;;;;;;;38.40;25.50;;;;;;;5.30;87.23;100146.20;105540;1259;69312;-75
2024/03/16 03:59:32;;;;;;;38.00;24.10;;;;;;;5.36;86.96;100145.20;106027;1260;71395;-71
2024/03/16 04:01:59;;;;;;;34.90;24.40;;;;;;;5.44;86.92;100148.27;105773;1267;61698;-70
2024/03/16 04:04:27;;;;;;;31.80;20.60;;;;;;;5.42;86.78;100143.46;105917;1259;61334;-72
2024/03/16 04:06:54;;;;;;;36.70;23.20;;;;;;;5.37;86.62;100146.92;106875;1253;74641;-74
2024/03/16 04:09:22;;;;;;;33.70;21.30;;;;;;;5.26;86.49;100149.15;107521;1254;70986;-70
2024/03/16 04:11:49;;;;;;;30.60;20.20;;;;;;;5.28;86.52;100149.20;106335;1254;71261;-71
2024/03/16 04:14:17;;;;;;;31.50;20.30;;;;;;;5.34;86.15;100151.55;105836;1267;61196;-72
2024/03/16 04:16:47;;;;;;;35.00;20.90;;;;;;;5.32;86.64;100150.98;105584;1254;61237;-72
2024/03/16 04:19:18;;;;;;;32.00;21.00;;;;;;;5.26;86.72;100151.79;105863;1254;74658;-74
2024/03/16 04:21:49;;;;;;;33.30;20.80;;;;;;;5.21;86.95;100153.85;106003;1254;70121;-72
2024/03/16 04:24:17;;;;;;;33.10;20.80;;;;;;;5.19;86.96;100154.08;105742;1259;72683;-74
2024/03/16 04:26:45;;;;;;;34.80;21.10;;;;;;;5.21;86.30;100154.64;105728;1254;61779;-74
2024/03/16 04:29:12;;;;;;;34.90;20.90;;;;;;;5.21;86.48;100153.58;105934;1257;61259;-73
2024/03/16 04:31:39;;;;;;;34.80;21.60;;;;;;;5.16;86.91;100150.83;106108;1257;74732;-71
2024/03/16 04:34:07;;;;;;;34.90;22.30;;;;;;;5.12;87.31;100150.48;106040;1258;70362;-74
2024/03/16 04:36:35;;;;;;;41.40;23.20;;;;;;;5.08;87.58;100150.08;106018;1259;72693;-72
2024/03/16 04:39:02;;;;;;;36.20;20.90;;;;;;;5.15;87.46;100147.98;105710;1259;61318;-74
2024/03/16 04:41:30;;;;;;;45.00;23.70;;;;;;;5.23;87.47;100148.36;105547;1257;61812;-73
2024/03/16 04:44:00;;;;;;;63.60;36.20;;;;;;;5.19;87.48;100148.20;105756;1260;72615;-73
2024/03/16 04:46:32;;;;;;;58.30;27.80;;;;;;;5.13;87.72;100150.55;105837;1259;69090;-73
2024/03/16 04:49:00;;;;;;;51.20;25.70;;;;;;;5.07;87.61;100151.56;106254;1259;71583;-74
2024/03/16 04:51:27;;;;;;;44.50;24.70;;;;;;;5.08;87.81;100155.14;106020;1252;64144;-75
2024/03/16 04:53:56;;;;;;;48.10;25.30;;;;;;;5.08;87.75;100151.85;105993;1256;61332;-74
2024/03/16 04:56:23;;;;;;;56.70;28.20;;;;;;;5.02;88.15;100154.42;105900;1258;73387;-74
2024/03/16 04:58:51;;;;;;;57.20;26.40;;;;;;;4.98;88.75;100151.05;106090;1253;70665;-73
2024/03/16 05:01:18;;;;;;;48.10;24.90;;;;;;;5.00;88.73;100149.16;106501;1260;71483;-76
2024/03/16 05:03:47;;;;;;;53.80;24.30;;;;;;;5.05;88.43;100149.94;106828;1253;61302;-72
2024/03/16 05:06:14;;;;;;;53.60;27.40;;;;;;;5.08;88.44;100147.59;107701;1254;61258;-73
2024/03/16 05:08:46;;;;;;;56.00;30.90;;;;;;;5.10;88.79;100146.77;106264;1257;73627;-73
2024/03/16 05:11:13;;;;;;;55.10;29.50;;;;;;;5.11;89.06;100146.30;105943;1254;69204;-71
2024/03/16 05:13:41;;;;;;;54.40;28.60;;;;;;;5.15;88.97;100150.98;105972;1253;71473;-73
2024/03/16 05:16:09;;;;;;;62.50;28.80;;;;;;;5.16;88.46;100148.23;105815;1258;61330;-74
2024/03/16 05:18:37;;;;;;;47.30;25.70;;;;;;;5.22;88.16;100146.89;105639;1257;62058;-73
2024/03/16 05:21:04;;;;;;;53.60;29.60;;;;;;;5.26;88.46;100149.48;105983;1258;73583;-72
2024/03/16 05:23:32;;;;;;;53.70;28.00;;;;;;;5.27;88.53;100150.34;105948;1251;69407;-73
2024/03/16 05:26:00;;;;;;;47.70;26.90;;;;;;;5.22;88.15;100149.64;105940;1260;72683;-74
2024/03/16 05:28:27;;;;;;;51.60;26.60;;;;;;;5.18;88.20;100152.46;106003;1257;61222;-74
2024/03/16 05:30:55;;;;;;;54.50;26.90;;;;;;;5.21;88.08;100150.29;106022;1255;61262;-74
2024/03/16 05:33:23;;;;;;;53.10;28.70;;;;;;;5.29;88.08;100151.54;105846;1257;73402;-74
2024/03/16 05:35:50;;;;;;;52.70;26.30;;;;;;;5.33;87.97;100156.69;106361;1257;70164;-73
2024/03/16 05:38:19;;;;;;;55.10;27.90;;;;;;;5.30;88.29;100153.90;106847;1257;74723;-73
2024/03/16 05:40:47;;;;;;;56.60;28.90;;;;;;;5.31;88.06;100158.57;105997;1254;61134;-72
2024/03/16 05:43:14;;;;;;;46.80;26.00;;;;;;;5.35;87.76;100155.45;106839;1257;59986;-72
2024/03/16 05:45:42;;;;;;;50.00;28.00;;;;;;;5.45;87.45;100156.09;107409;1256;75569;-73
2024/03/16 05:48:10;;;;;;;54.70;29.20;;;;;;;5.48;87.32;100156.70;106590;1259;68917;-72
2024/03/16 05:50:38;;;;;;;65.40;29.90;;;;;;;5.44;87.09;100157.16;106996;1253;72954;-69
2024/03/16 05:53:05;;;;;;;46.10;26.90;;;;;;;5.42;87.18;100159.11;106309;1253;61336;-72
2024/03/16 05:55:32;;;;;;;39.40;24.00;;;;;;;5.47;86.85;100156.92;106731;1254;61235;-72
2024/03/16 05:58:00;;;;;;;34.10;22.90;;;;;;;5.51;86.61;100157.51;107112;1254;75822;-73
2024/03/16 06:00:27;;;;;;;44.40;24.20;;;;;;;5.51;86.65;100155.23;107748;1255;68790;-71
2024/03/16 06:02:55;;;;;;;47.80;26.70;;;;;;;5.52;86.77;100158.68;106850;1256;73084;-70
2024/03/16 06:05:23;;;;;;;44.60;24.20;;;;;;;5.54;86.78;100158.52;106885;1256;61244;-73
2024/03/16 06:07:51;;;;;;;38.40;23.90;;;;;;;5.70;86.63;100164.20;107027;1251;61148;-72
2024/03/16 06:10:18;;;;;;;33.90;22.00;;;;;;;5.88;86.36;100167.49;106603;1256;74685;-72
2024/03/16 06:12:46;;;;;;;30.90;21.70;;;;;;;5.95;85.66;100169.03;106329;1257;69955;-74
2024/03/16 06:15:14;;;;;;;31.60;22.10;;;;;;;5.98;85.07;100168.09;106678;1256;72685;-73
2024/03/16 06:17:41;;;;;;;30.70;21.90;;;;;;;5.98;84.75;100172.14;106760;1254;61308;-72
2024/03/16 06:20:12;;;;;;;30.80;19.50;;;;;;;5.96;84.23;100174.05;106694;1251;61250;-74
2024/03/16 06:22:41;;;;;;;25.60;17.80;;;;;;;6.02;83.63;100172.48;106091;1258;74839;-72
2024/03/16 06:25:13;;;;;;;24.50;17.60;;;;;;;6.11;83.22;100173.90;106039;1257;70365;-73
2024/03/16 06:27:43;;;;;;;24.90;18.60;;;;;;;6.14;83.27;100173.61;106003;1251;71428;-74
2024/03/16 06:30:13;;;;;;;25.50;18.90;;;;;;;6.16;82.90;100170.15;105759;1254;61334;-74
2024/03/16 06:32:55;;;;;;;24.80;19.60;;;;;;;6.18;82.96;100174.30;105873;1251;61331;-73
2024/03/16 06:35:23;;;;;;;21.30;16.30;;;;;;;6.22;82.52;100177.84;105855;1251;73438;-72
2024/03/16 06:37:50;;;;;;;20.70;15.50;;;;;;;6.36;82.09;100178.45;105624;1257;69351;-72
2024/03/16 06:40:17;;;;;;;21.70;16.10;;;;;;;6.46;81.37;100175.98;105729;1256;72767;-74
2024/03/16 06:42:45;;;;;;;21.30;16.40;;;;;;;6.44;80.72;100178.86;105729;1254;61272;-74
2024/03/16 06:45:12;;;;;;;24.00;15.80;;;;;;;6.40;80.57;100178.97;105694;1256;61215;-73
2024/03/16 06:47:41;;;;;;;22.50;17.10;;;;;;;6.37;80.17;100180.61;105700;1257;74926;-73
2024/03/16 06:50:10;;;;;;;17.90;14.30;;;;;;;6.35;80.29;100179.41;105728;1251;68831;-75
2024/03/16 06:52:37;;;;;;;18.60;14.70;;;;;;;6.43;79.85;100177.98;107199;1251;72608;-73
2024/03/16 06:55:06;;;;;;;21.00;15.60;;;;;;;6.49;79.47;100180.86;107152;1254;61314;-73
2024/03/16 06:57:34;;;;;;;18.90;15.20;;;;;;;6.46;79.45;100180.73;106149;1260;61167;-72
2024/03/16 07:00:02;;;;;;;18.90;14.30;;;;;;;6.45;79.40;100184.02;105918;1251;75069;-71
2024/03/16 07:02:29;;;;;;;19.30;14.40;;;;;;;6.44;79.21;100186.77;105951;1259;68870;-73
2024/03/16 07:04:57;;;;;;;18.20;13.80;;;;;;;6.42;79.02;100184.45;105774;1251;71800;-74
2024/03/16 07:07:25;;;;;;;14.90;12.30;;;;;;;6.45;78.79;100185.93;106099;1254;61290;-75
2024/03/16 07:09:54;;;;;;;18.20;13.70;;;;;;;6.53;78.55;100188.65;106172;1251;61308;-73
2024/03/16 07:12:22;;;;;;;15.70;12.00;;;;;;;6.54;78.64;100188.21;106308;1254;74622;-74
2024/03/16 07:14:50;;;;;;;15.10;11.80;;;;;;;6.56;78.44;100188.36;106060;1257;70154;-75
2024/03/16 07:17:17;;;;;;;16.60;12.20;;;;;;;6.60;78.35;100185.89;106276;1256;70452;-75
2024/03/16 07:19:45;;;;;;;13.70;12.00;;;;;;;6.68;78.10;100188.20;106283;1251;61214;-74
2024/03/16 07:22:12;;;;;;;14.50;11.70;;;;;;;6.78;77.57;100189.46;106176;1256;61216;-75
2024/03/16 07:24:40;;;;;;;14.00;11.40;;;;;;;6.92;76.43;100190.57;106222;1257;73388;-74
2024/03/16 07:27:08;;;;;;;14.60;10.50;;;;;;;7.05;76.16;100188.17;105896;1257;68970;-74
2024/03/16 07:29:36;;;;;;;11.80;9.80;;;;;;;7.16;75.73;100190.63;106199;1252;72357;-74
2024/03/16 07:32:05;;;;;;;11.40;9.40;;;;;;;7.22;74.93;100190.19;106109;1258;61119;-75
2024/03/16 07:34:34;;;;;;;13.40;10.40;;;;;;;7.24;74.13;100187.43;106316;1251;61327;-75
2024/03/16 07:37:02;;;;;;;9.60;8.20;;;;;;;7.24;73.50;100189.31;106116;1251;74638;-74
2024/03/16 07:39:30;;;;;;;11.30;9.90;;;;;;;7.20;72.35;100188.78;106270;1251;72721;-74
2024/03/16 07:41:57;;;;;;;10.70;9.50;;;;;;;7.15;72.75;100190.00;106333;1257;72677;-72
2024/03/16 07:44:25;;;;;;;12.60;9.70;;;;;;;7.14;72.84;100186.19;106104;1251;61333;-73
2024/03/16 07:46:52;;;;;;;12.30;9.10;;;;;;;7.20;72.85;100186.70;107639;1251;59783;-73
2024/03/16 07:49:20;;;;;;;11.10;8.70;;;;;;;7.37;72.69;100189.73;108053;1251;75771;-71
2024/03/16 07:51:48;;;;;;;11.70;9.80;;;;;;;7.59;72.11;100190.29;106810;1256;69381;-73
2024/03/16 07:54:16;;;;;;;13.00;9.50;;;;;;;7.72;71.50;100183.83;106506;1256;71611;-73
2024/03/16 07:56:43;;;;;;;10.70;9.50;;;;;;;7.79;70.87;100182.52;106464;1257;61372;-74
2024/03/16 07:59:13;;;;;;;10.70;9.10;;;;;;;7.85;70.79;100176.63;106377;1253;61210;-76
2024/03/16 08:01:41;;;;;;;13.00;9.80;;;;;;;7.94;70.73;100184.14;106085;1251;75498;-75
2024/03/16 08:04:08;;;;;;;13.20;8.60;;;;;;;8.03;70.15;100183.48;106042;1257;70572;-77
2024/03/16 08:06:37;;;;;;;9.90;8.30;;;;;;;8.11;69.99;100183.09;106321;1254;73254;-76
2024/03/16 08:09:08;;;;;;;10.60;8.90;;;;;;;8.23;69.81;100183.41;106519;1254;61263;-74
2024/03/16 08:11:36;;;;;;;12.10;9.70;;;;;;;8.37;69.17;100183.52;106431;1253;61237;-75
2024/03/16 08:14:08;;;;;;;12.60;10.00;;;;;;;8.51;69.34;100184.04;106508;1257;73524;-73
2024/03/16 08:16:36;;;;;;;10.70;9.40;;;;;;;8.64;69.18;100183.71;106981;1252;71452;-75
2024/03/16 08:19:03;;;;;;;9.40;8.40;;;;;;;8.76;68.27;100183.79;106588;1256;75029;-75
2024/03/16 08:21:32;;;;;;;9.40;7.70;;;;;;;8.86;68.00;100180.73;106341;1254;62073;-73
2024/03/16 08:24:00;;;;;;;9.30;8.10;;;;;;;8.93;66.93;100180.36;106372;1250;61173;-75
2024/03/16 08:26:28;;;;;;;9.50;8.50;;;;;;;8.96;67.33;100182.64;106306;1251;73666;-75
2024/03/16 08:28:55;;;;;;;10.90;9.00;;;;;;;9.05;67.35;100181.00;106315;1251;69113;-75
2024/03/16 08:31:23;;;;;;;10.70;9.20;;;;;;;9.17;66.91;100177.20;106270;1254;73071;-73
2024/03/16 08:33:51;;;;;;;10.00;9.00;;;;;;;9.31;66.63;100175.71;105926;1251;61299;-75
2024/03/16 08:36:18;;;;;;;8.90;8.00;;;;;;;9.43;65.54;100175.73;106503;1254;61249;-76
2024/03/16 08:38:46;;;;;;;11.60;8.70;;;;;;;9.44;64.91;100173.11;106430;1254;73443;-76
2024/03/16 08:41:13;;;;;;;11.40;8.40;;;;;;;9.38;64.87;100177.83;107855;1256;70914;-75
2024/03/16 08:43:41;;;;;;;10.20;8.20;;;;;;;9.33;65.66;100173.73;107955;1253;73655;-75
2024/03/16 08:46:08;;;;;;;11.00;9.10;;;;;;;9.40;65.52;100169.55;106510;1253;61256;-76
2024/03/16 08:48:36;;;;;;;11.40;8.80;;;;;;;9.41;64.87;100168.93;106203;1251;61100;-76
2024/03/16 08:51:04;;;;;;;11.20;9.20;;;;;;;9.34;65.12;100169.76;106217;1251;76608;-75
2024/03/16 08:53:32;;;;;;;9.80;8.40;;;;;;;9.38;65.28;100170.39;106098;1256;69327;-76
2024/03/16 08:56:01;;;;;;;10.10;8.80;;;;;;;9.46;64.72;100176.39;106981;1251;74056;-77
2024/03/16 08:58:29;;;;;;;9.80;8.20;;;;;;;9.46;64.56;100171.61;106464;1254;62259;-75
2024/03/16 09:00:58;;;;;;;8.10;7.30;;;;;;;9.34;63.76;100173.64;107537;1251;61263;-76
2024/03/16 09:03:26;;;;;;;9.60;8.10;;;;;;;9.16;64.25;100177.15;107856;1250;77258;-74
2024/03/16 09:05:53;;;;;;;11.70;9.00;;;;;;;9.03;64.71;100171.17;107231;1251;69938;-75
2024/03/16 09:08:21;;;;;;;12.60;9.40;;;;;;;8.94;64.81;100173.08;106140;1260;71676;-73
2024/03/16 09:10:49;;;;;;;9.60;7.70;;;;;;;8.87;65.30;100165.80;105885;1254;61394;-75
2024/03/16 09:13:16;;;;;;;10.20;8.60;;;;;;;8.95;65.79;100175.27;106275;1251;61262;-75
2024/03/16 09:15:44;;;;;;;11.90;9.70;;;;;;;9.01;65.79;100169.23;106226;1251;74449;-75
2024/03/16 09:18:11;;;;;;;13.00;10.60;;;;;;;9.02;65.83;100172.51;106550;1257;68084;-76
2024/03/16 09:20:43;;;;;;;14.20;10.30;;;;;;;9.01;65.57;100167.26;107810;1251;74953;-76
2024/03/16 09:23:13;;;;;;;15.10;11.20;;;;;;;8.99;65.69;100165.56;108622;1252;61214;-75
2024/03/16 09:25:42;;;;;;;14.00;11.00;;;;;;;9.01;65.89;100166.70;108323;1251;60992;-75
2024/03/16 09:28:13;;;;;;;14.00;12.50;;;;;;;9.05;65.80;100171.10;108276;1251;73410;-76
2024/03/16 09:30:44;;;;;;;16.40;12.60;;;;;;;9.01;65.12;100169.79;108661;1251;70179;-78
2024/03/16 09:33:13;;;;;;;14.30;11.90;;;;;;;8.85;65.46;100169.14;108171;1251;71753;-75
2024/03/16 09:35:45;;;;;;;16.20;12.10;;;;;;;8.71;65.61;100175.58;108522;1251;59610;-76
2024/03/16 09:38:12;;;;;;;16.60;12.80;;;;;;;8.55;66.13;100174.96;108474;1251;61199;-75
2024/03/16 09:40:43;;;;;;;12.50;10.70;;;;;;;8.40;66.72;100177.22;108913;1251;75643;-75
2024/03/16 09:43:11;;;;;;;19.00;12.30;;;;;;;8.27;67.05;100175.84;108774;1251;70005;-76
2024/03/16 09:45:42;;;;;;;11.80;9.50;;;;;;;8.17;67.73;100177.14;108357;1251;71339;-76
2024/03/16 09:48:10;;;;;;;13.50;10.50;;;;;;;8.08;67.76;100179.61;108243;1252;61199;-75
2024/03/16 09:50:54;;;;;;;13.00;10.30;;;;;;;7.97;68.15;100173.65;108183;1253;61136;-74
2024/03/16 09:53:31;;;;;;;13.90;10.80;;;;;;;7.85;68.61;100168.73;108270;1251;73634;-75
2024/03/16 09:56:00;;;;;;;16.50;12.30;;;;;;;7.79;69.18;100169.80;108299;1251;68457;-75
2024/03/16 09:58:28;;;;;;;13.80;10.80;;;;;;;7.80;69.64;100171.80;108235;1251;74962;-76
2024/03/16 10:01:07;;;;;;;15.30;10.20;;;;;;;7.91;69.50;100170.52;108023;1251;61993;-76
2024/03/16 10:03:50;;;;;;;14.00;10.50;;;;;;;8.03;69.25;100167.23;108108;1251;62100;-75
2024/03/16 10:06:19;;;;;;;12.70;10.70;;;;;;;8.04;69.40;100169.39;107965;1251;76798;-75
2024/03/16 10:08:46;;;;;;;16.40;11.60;;;;;;;8.08;69.35;100166.79;108159;1251;68758;-76
2024/03/16 10:11:14;;;;;;;16.40;11.10;;;;;;;8.08;69.37;100166.57;107900;1253;74688;-75
2024/03/16 10:13:57;;;;;;;15.70;11.30;;;;;;;8.08;69.38;100164.09;107812;1256;61206;-76
2024/03/16 10:16:25;;;;;;;17.20;11.40;;;;;;;8.05;69.22;100166.66;108287;1256;61123;-76
2024/03/16 10:18:53;;;;;;;16.00;11.30;;;;;;;7.96;69.57;100166.11;108077;1251;73680;-75
2024/03/16 10:21:21;;;;;;;15.90;11.70;;;;;;;7.90;69.94;100166.90;108035;1251;70590;-76
2024/03/16 10:23:48;;;;;;;16.30;11.70;;;;;;;7.86;69.98;100164.59;108008;1251;72329;-76
2024/03/16 10:26:16;;;;;;;18.00;11.30;;;;;;;7.86;70.36;100163.16;107623;1252;214205;-75
2024/03/16 10:30:45;;;;;;;14.00;10.40;;;;;;;7.94;70.17;100166.67;105535;1289;599555;-75
2024/03/16 10:33:12;;;;;;;12.60;10.30;;;;;;;7.90;70.28;100165.81;107649;1266;61246;-74
2024/03/16 10:35:40;;;;;;;14.20;10.20;;;;;;;7.88;70.28;100163.32;107802;1266;59584;-75
2024/03/16 10:38:12;;;;;;;14.50;11.50;;;;;;;7.85;70.51;100162.16;107347;1266;72029;-74
2024/03/16 10:40:40;;;;;;;17.90;13.60;;;;;;;7.78;70.46;100163.14;107048;1265;71180;-76
2024/03/16 10:43:12;;;;;;;16.30;13.10;;;;;;;7.74;70.81;100157.39;107619;1261;70413;-76
2024/03/16 10:45:47;;;;;;;16.50;12.60;;;;;;;7.79;70.98;100156.42;107708;1257;60424;-77
2024/03/16 10:48:15;;;;;;;17.40;12.60;;;;;;;7.84;70.90;100160.10;107835;1257;60992;-76
2024/03/16 10:50:48;;;;;;;15.80;10.90;;;;;;;7.88;70.77;100160.66;107739;1257;74085;-76
2024/03/16 10:53:18;;;;;;;12.20;10.10;;;;;;;8.02;70.65;100159.06;107803;1256;69020;-76
2024/03/16 10:55:46;;;;;;;14.20;10.90;;;;;;;8.16;70.33;100157.79;107521;1257;70552;-74
2024/03/16 10:58:20;;;;;;;16.90;13.60;;;;;;;8.15;69.92;100156.31;107514;1256;61197;-75
2024/03/16 11:00:49;;;;;;;18.00;12.80;;;;;;;8.07;69.87;100155.90;107502;1260;62040;-75
2024/03/16 11:05:54;;;;;;;17.00;12.40;;;;;;;8.04;70.77;100151.09;108613;1256;71248;-75
2024/03/16 11:08:51;;;;;;;19.30;13.10;;;;;;;8.09;70.50;100149.41;109081;1256;71427;-74
2024/03/16 11:11:21;;;;;;;16.50;12.70;;;;;;;8.15;70.46;100149.23;108589;1256;59387;-74
2024/03/16 11:13:55;;;;;;;16.90;12.80;;;;;;;8.17;70.16;100146.95;108115;1257;59223;-72
2024/03/16 11:16:29;;;;;;;16.10;11.70;;;;;;;8.13;70.15;100147.51;108017;1256;73999;-74
2024/03/16 11:18:58;;;;;;;17.50;11.80;;;;;;;8.12;70.34;100142.48;108337;1257;70792;-73
2024/03/16 11:21:27;;;;;;;14.60;11.50;;;;;;;8.16;70.11;100136.44;108608;1256;71494;-75
2024/03/16 11:23:59;;;;;;;15.70;11.60;;;;;;;8.19;70.55;100127.49;108701;1256;58941;-75